sensor_id;sensor_type;location;lat;lon;timestamp;pressure;altitude;pressure_sealevel;temperature;humidity
39243;BME280;29823;47.404;8.566;2023-04-08T00:00:21;96684.44;;;5.34;100.00
39243;BME280;29823;47.404;8.566;2023-04-08T00:02:51;96684.06;;;5.37;100.00
39243;BME280;29823;47.404;8.566;2023-04-08T00:05:19;96683.66;;;5.40;100.00
39243;BME280;29823;47.404;8.566;2023-04-08T00:07:46;96693.84;;;5.37;100.00
39243;BME280;29823;47.404;8.566;2023-04-08T00:10:15;96678.28;;;5.27;100.00
39243;BME280;29823;47.404;8.566;2023-04-08T00:12:42;96682.03;;;5.39;100.00
39243;BME280;29823;47.404;8.566;2023-04-08T00:15:10;96690.44;;;5.49;100.00
39243;BME280;29823;47.404;8.566;2023-04-08T00:17:38;96692.25;;;5.42;100.00
39243;BME280;29823;47.404;8.566;2023-04-08T00:20:09;96684.97;;;5.57;100.00
39243;BME280;29823;47.404;8.566;2023-04-08T00:22:37;96690.75;;;5.67;100.00
39243;BME280;29823;47.404;8.566;2023-04-08T00:25:05;96674.22;;;5.65;100.00
39243;BME280;29823;47.404;8.566;2023-04-08T00:27:34;96687.94;;;5.75;100.00
39243;BME280;29823;47.404;8.566;2023-04-08T00:30:03;96690.03;;;5.80;100.00
39243;BME280;29823;47.404;8.566;2023-04-08T00:32:31;96677.59;;;5.80;100.00
39243;BME280;29823;47.404;8.566;2023-04-08T00:34:59;96684.75;;;5.86;100.00
39243;BME280;29823;47.404;8.566;2023-04-08T00:37:29;96687.00;;;5.83;100.00
39243;BME280;29823;47.404;8.566;2023-04-08T00:39:57;96677.28;;;5.69;100.00
39243;BME280;29823;47.404;8.566;2023-04-08T00:42:25;96680.25;;;5.80;100.00
39243;BME280;29823;47.404;8.566;2023-04-08T00:44:56;96686.38;;;5.87;100.00
39243;BME280;29823;47.404;8.566;2023-04-08T00:47:24;96683.72;;;5.87;100.00
39243;BME280;29823;47.404;8.566;2023-04-08T00:49:52;96683.53;;;5.89;100.00
39243;BME280;29823;47.404;8.566;2023-04-08T00:52:19;96678.66;;;5.92;100.00
39243;BME280;29823;47.404;8.566;2023-04-08T00:54:49;96683.16;;;5.98;100.00
39243;BME280;29823;47.404;8.566;2023-04-08T00:57:17;96681.13;;;5.94;100.00
39243;BME280;29823;47.404;8.566;2023-04-08T00:59:44;96669.47;;;5.95;100.00
39243;BME280;29823;47.404;8.566;2023-04-08T01:02:16;96675.94;;;5.79;100.00
39243;BME280;29823;47.404;8.566;2023-04-08T01:04:53;96671.38;;;5.73;100.00
39243;BME280;29823;47.404;8.566;2023-04-08T01:07:26;96671.59;;;5.72;100.00
39243;BME280;29823;47.404;8.566;2023-04-08T01:10:01;96681.47;;;5.84;100.00
39243;BME280;29823;47.404;8.566;2023-04-08T01:12:31;96681.69;;;5.83;100.00
39243;BME280;29823;47.404;8.566;2023-04-08T01:15:04;96680.91;;;5.95;100.00
39243;BME280;29823;47.404;8.566;2023-04-08T01:17:33;96681.13;;;5.94;100.00
39243;BME280;29823;47.404;8.566;2023-04-08T01:20:03;96668.34;;;5.76;100.00
39243;BME280;29823;47.404;8.566;2023-04-08T01:22:40;96679.91;;;5.96;100.00
39243;BME280;29823;47.404;8.566;2023-04-08T01:25:16;96670.88;;;5.91;100.00
39243;BME280;29823;47.404;8.566;2023-04-08T01:27:47;96677.84;;;5.98;100.00
39243;BME280;29823;47.404;8.566;2023-04-08T01:30:17;96679.53;;;6.06;100.00
39243;BME280;29823;47.404;8.566;2023-04-08T01:32:46;96672.81;;;6.10;100.00
39243;BME280;29823;47.404;8.566;2023-04-08T01:35:14;96681.97;;;6.07;100.00
39243;BME280;29823;47.404;8.566;2023-04-08T01:37:43;96675.22;;;6.05;100.00
39243;BME280;29823;47.404;8.566;2023-04-08T01:40:12;96673.50;;;5.84;100.00
39243;BME280;29823;47.404;8.566;2023-04-08T01:42:41;96677.81;;;5.85;100.00
39243;BME280;29823;47.404;8.566;2023-04-08T01:45:11;96678.97;;;5.76;100.00
39243;BME280;29823;47.404;8.566;2023-04-08T01:47:42;96678.19;;;5.82;100.00
39243;BME280;29823;47.404;8.566;2023-04-08T01:50:13;96681.09;;;5.87;100.00
39243;BME280;29823;47.404;8.566;2023-04-08T01:52:43;96670.84;;;5.84;100.00
39243;BME280;29823;47.404;8.566;2023-04-08T01:55:11;96658.91;;;5.67;100.00
39243;BME280;29823;47.404;8.566;2023-04-08T01:57:40;96668.34;;;5.76;100.00
39243;BME280;29823;47.404;8.566;2023-04-08T02:00:13;96672.81;;;5.69;100.00
39243;BME280;29823;47.404;8.566;2023-04-08T02:02:42;96676.44;;;5.62;100.00
39243;BME280;29823;47.404;8.566;2023-04-08T02:05:11;96677.03;;;5.57;100.00
39243;BME280;29823;47.404;8.566;2023-04-08T02:07:39;96675.25;;;5.64;100.00
39243;BME280;29823;47.404;8.566;2023-04-08T02:10:07;96679.28;;;5.60;100.00
39243;BME280;29823;47.404;8.566;2023-04-08T02:12:35;96678.13;;;5.69;100.00
39243;BME280;29823;47.404;8.566;2023-04-08T02:15:04;96688.22;;;5.80;100.00
39243;BME280;29823;47.404;8.566;2023-04-08T02:17:37;96692.16;;;5.97;100.00
39243;BME280;29823;47.404;8.566;2023-04-08T02:20:09;96684.84;;;6.06;100.00
39243;BME280;29823;47.404;8.566;2023-04-08T02:22:40;96685.47;;;6.14;100.00
39243;BME280;29823;47.404;8.566;2023-04-08T02:25:14;96679.53;;;6.06;100.00
39243;BME280;29823;47.404;8.566;2023-04-08T02:27:43;96693.00;;;6.11;100.00
39243;BME280;29823;47.404;8.566;2023-04-08T02:30:12;96685.69;;;6.19;100.00
39243;BME280;29823;47.404;8.566;2023-04-08T02:32:42;96678.69;;;6.05;100.00
39243;BME280;29823;47.404;8.566;2023-04-08T02:35:11;96686.44;;;5.94;100.00
39243;BME280;29823;47.404;8.566;2023-04-08T02:37:39;96680.50;;;5.98;100.00
39243;BME280;29823;47.404;8.566;2023-04-08T02:40:22;96662.13;;;5.90;100.00
39243;BME280;29823;47.404;8.566;2023-04-08T02:42:50;96680.69;;;5.90;100.00
39243;BME280;29823;47.404;8.566;2023-04-08T02:45:19;96684.19;;;5.97;100.00
39243;BME280;29823;47.404;8.566;2023-04-08T02:47:48;96680.72;;;6.03;100.00
39243;BME280;29823;47.404;8.566;2023-04-08T02:50:16;96686.16;;;5.82;100.00
39243;BME280;29823;47.404;8.566;2023-04-08T02:52:44;96676.84;;;5.99;100.00
39243;BME280;29823;47.404;8.566;2023-04-08T02:55:11;96685.66;;;6.06;100.00
39243;BME280;29823;47.404;8.566;2023-04-08T02:57:42;96683.56;;;5.95;100.00
39243;BME280;29823;47.404;8.566;2023-04-08T03:00:11;96687.63;;;5.91;100.00
39243;BME280;29823;47.404;8.566;2023-04-08T03:02:40;96683.34;;;5.97;100.00
39243;BME280;29823;47.404;8.566;2023-04-08T03:05:10;96671.72;;;5.91;100.00
39243;BME280;29823;47.404;8.566;2023-04-08T03:07:38;96689.88;;;5.88;100.00
39243;BME280;29823;47.404;8.566;2023-04-08T03:10:06;96693.56;;;5.93;100.00
39243;BME280;29823;47.404;8.566;2023-04-08T03:12:34;96679.69;;;5.91;100.00
39243;BME280;29823;47.404;8.566;2023-04-08T03:15:03;96683.34;;;5.90;100.00
39243;BME280;29823;47.404;8.566;2023-04-08T03:17:31;96684.19;;;5.97;100.00
39243;BME280;29823;47.404;8.566;2023-04-08T03:20:00;96678.34;;;5.74;100.00
39243;BME280;29823;47.404;8.566;2023-04-08T03:22:32;96681.88;;;5.81;100.00
39243;BME280;29823;47.404;8.566;2023-04-08T03:25:00;96692.50;;;5.81;100.00
39243;BME280;29823;47.404;8.566;2023-04-08T03:27:28;96693.44;;;5.74;100.00
39243;BME280;29823;47.404;8.566;2023-04-08T03:29:56;96697.69;;;5.68;100.00
39243;BME280;29823;47.404;8.566;2023-04-08T03:32:24;96691.41;;;5.76;100.00
39243;BME280;29823;47.404;8.566;2023-04-08T03:34:52;96692.00;;;5.71;100.00
39243;BME280;29823;47.404;8.566;2023-04-08T03:37:20;96700.00;;;5.78;100.00
39243;BME280;29823;47.404;8.566;2023-04-08T03:39:49;96700.25;;;5.83;100.00
39243;BME280;29823;47.404;8.566;2023-04-08T03:42:17;96700.69;;;5.86;100.00
39243;BME280;29823;47.404;8.566;2023-04-08T03:44:44;96696.59;;;5.84;100.00
39243;BME280;29823;47.404;8.566;2023-04-08T03:47:12;96697.47;;;5.97;100.00
39243;BME280;29823;47.404;8.566;2023-04-08T03:49:40;96702.81;;;6.04;100.00
39243;BME280;29823;47.404;8.566;2023-04-08T03:52:08;96704.66;;;6.10;100.00
39243;BME280;29823;47.404;8.566;2023-04-08T03:54:35;96700.34;;;6.02;100.00
39243;BME280;29823;47.404;8.566;2023-04-08T03:57:05;96692.56;;;6.01;100.00
39243;BME280;29823;47.404;8.566;2023-04-08T03:59:32;96696.47;;;6.05;100.00
39243;BME280;29823;47.404;8.566;2023-04-08T04:02:02;96699.13;;;6.11;100.00
39243;BME280;29823;47.404;8.566;2023-04-08T04:04:29;96690.56;;;6.09;100.00
39243;BME280;29823;47.404;8.566;2023-04-08T04:06:57;96692.00;;;6.12;100.00
39243;BME280;29823;47.404;8.566;2023-04-08T04:09:25;96687.06;;;6.02;100.00
39243;BME280;29823;47.404;8.566;2023-04-08T04:11:53;96692.78;;;6.06;100.00
39243;BME280;29823;47.404;8.566;2023-04-08T04:14:23;96691.38;;;6.16;100.00
39243;BME280;29823;47.404;8.566;2023-04-08T04:16:50;96687.28;;;6.14;100.00
39243;BME280;29823;47.404;8.566;2023-04-08T04:19:18;96701.19;;;6.16;100.00
39243;BME280;29823;47.404;8.566;2023-04-08T04:21:46;96683.84;;;6.13;100.00
39243;BME280;29823;47.404;8.566;2023-04-08T04:24:14;96696.28;;;6.13;100.00
39243;BME280;29823;47.404;8.566;2023-04-08T04:26:41;96706.69;;;6.14;100.00
39243;BME280;29823;47.404;8.566;2023-04-08T04:29:09;96705.22;;;6.05;100.00
39243;BME280;29823;47.404;8.566;2023-04-08T04:31:38;96705.19;;;5.92;100.00
39243;BME280;29823;47.404;8.566;2023-04-08T04:34:07;96698.22;;;5.85;100.00
39243;BME280;29823;47.404;8.566;2023-04-08T04:36:34;96707.38;;;5.82;100.00
39243;BME280;29823;47.404;8.566;2023-04-08T04:39:02;96709.44;;;5.80;100.00
39243;BME280;29823;47.404;8.566;2023-04-08T04:41:30;96713.25;;;5.78;100.00
39243;BME280;29823;47.404;8.566;2023-04-08T04:43:58;96711.91;;;5.54;100.00
39243;BME280;29823;47.404;8.566;2023-04-08T04:46:26;96716.88;;;5.70;100.00
39243;BME280;29823;47.404;8.566;2023-04-08T04:48:55;96732.72;;;5.57;100.00
39243;BME280;29823;47.404;8.566;2023-04-08T04:51:23;96719.13;;;5.67;100.00
39243;BME280;29823;47.404;8.566;2023-04-08T04:53:52;96718.88;;;5.62;100.00
39243;BME280;29823;47.404;8.566;2023-04-08T04:56:19;96724.72;;;5.51;100.00
39243;BME280;29823;47.404;8.566;2023-04-08T04:58:47;96722.50;;;5.54;100.00
39243;BME280;29823;47.404;8.566;2023-04-08T05:01:15;96720.13;;;5.66;100.00
39243;BME280;29823;47.404;8.566;2023-04-08T05:03:43;96722.25;;;5.77;100.00
39243;BME280;29823;47.404;8.566;2023-04-08T05:06:12;96730.53;;;5.67;100.00
39243;BME280;29823;47.404;8.566;2023-04-08T05:08:41;96714.31;;;5.49;100.00
39243;BME280;29823;47.404;8.566;2023-04-08T05:11:09;96736.63;;;5.61;100.00
39243;BME280;29823;47.404;8.566;2023-04-08T05:13:37;96736.91;;;5.73;100.00
39243;BME280;29823;47.404;8.566;2023-04-08T05:16:05;96744.63;;;5.68;100.00
39243;BME280;29823;47.404;8.566;2023-04-08T05:18:33;96746.44;;;5.67;100.00
39243;BME280;29823;47.404;8.566;2023-04-08T05:21:01;96743.56;;;5.62;100.00
39243;BME280;29823;47.404;8.566;2023-04-08T05:23:31;96760.97;;;5.71;100.00
39243;BME280;29823;47.404;8.566;2023-04-08T05:25:58;96755.75;;;5.84;100.00
39243;BME280;29823;47.404;8.566;2023-04-08T05:28:26;96743.47;;;5.77;100.00
39243;BME280;29823;47.404;8.566;2023-04-08T05:30:54;96765.94;;;5.81;100.00
39243;BME280;29823;47.404;8.566;2023-04-08T05:33:22;96760.69;;;5.87;100.00
39243;BME280;29823;47.404;8.566;2023-04-08T05:35:52;96764.78;;;5.90;100.00
39243;BME280;29823;47.404;8.566;2023-04-08T05:38:19;96765.44;;;5.98;100.00
39243;BME280;29823;47.404;8.566;2023-04-08T05:40:49;96756.69;;;6.04;100.00
39243;BME280;29823;47.404;8.566;2023-04-08T05:43:17;96767.28;;;6.04;100.00
39243;BME280;29823;47.404;8.566;2023-04-08T05:45:44;96760.41;;;6.10;100.00
39243;BME280;29823;47.404;8.566;2023-04-08T05:48:12;96746.47;;;6.08;100.00
39243;BME280;29823;47.404;8.566;2023-04-08T05:50:40;96759.19;;;6.12;100.00
39243;BME280;29823;47.404;8.566;2023-04-08T05:53:08;96764.75;;;6.30;100.00
39243;BME280;29823;47.404;8.566;2023-04-08T05:55:36;96762.09;;;6.30;100.00
39243;BME280;29823;47.404;8.566;2023-04-08T05:58:06;96764.19;;;6.41;100.00
39243;BME280;29823;47.404;8.566;2023-04-08T06:00:33;96762.38;;;6.48;100.00
39243;BME280;29823;47.404;8.566;2023-04-08T06:03:01;96777.31;;;6.49;100.00
39243;BME280;29823;47.404;8.566;2023-04-08T06:05:32;96760.50;;;6.42;100.00
39243;BME280;29823;47.404;8.566;2023-04-08T06:08:00;96780.16;;;6.48;100.00
39243;BME280;29823;47.404;8.566;2023-04-08T06:10:28;96770.09;;;6.43;100.00
39243;BME280;29823;47.404;8.566;2023-04-08T06:12:56;96785.53;;;6.67;100.00
39243;BME280;29823;47.404;8.566;2023-04-08T06:15:25;96783.88;;;6.73;100.00
39243;BME280;29823;47.404;8.566;2023-04-08T06:17:53;96783.91;;;6.79;100.00
39243;BME280;29823;47.404;8.566;2023-04-08T06:20:21;96764.28;;;6.67;100.00
39243;BME280;29823;47.404;8.566;2023-04-08T06:22:49;96783.53;;;6.82;100.00
39243;BME280;29823;47.404;8.566;2023-04-08T06:25:17;96780.66;;;6.90;100.00
39243;BME280;29823;47.404;8.566;2023-04-08T06:27:45;96775.75;;;6.94;100.00
39243;BME280;29823;47.404;8.566;2023-04-08T06:30:14;96782.72;;;7.01;100.00
39243;BME280;29823;47.404;8.566;2023-04-08T06:32:43;96777.81;;;7.05;100.00
39243;BME280;29823;47.404;8.566;2023-04-08T06:35:13;96774.16;;;7.12;100.00
39243;BME280;29823;47.404;8.566;2023-04-08T06:37:41;96777.22;;;7.16;100.00
39243;BME280;29823;47.404;8.566;2023-04-08T06:40:09;96784.38;;;7.28;100.00
39243;BME280;29823;47.404;8.566;2023-04-08T06:42:37;96776.59;;;7.27;100.00
39243;BME280;29823;47.404;8.566;2023-04-08T06:45:08;96785.00;;;7.43;100.00
39243;BME280;29823;47.404;8.566;2023-04-08T06:47:36;96790.50;;;7.35;100.00
39243;BME280;29823;47.404;8.566;2023-04-08T06:50:06;96785.22;;;7.48;100.00
39243;BME280;29823;47.404;8.566;2023-04-08T06:52:34;96778.84;;;7.43;100.00
39243;BME280;29823;47.404;8.566;2023-04-08T06:55:02;96774.16;;;7.51;100.00
39243;BME280;29823;47.404;8.566;2023-04-08T06:57:30;96790.50;;;7.61;100.00
39243;BME280;29823;47.404;8.566;2023-04-08T06:59:58;96787.03;;;7.87;100.00
39243;BME280;29823;47.404;8.566;2023-04-08T07:02:26;96782.91;;;7.91;100.00
39243;BME280;29823;47.404;8.566;2023-04-08T07:04:54;96784.75;;;7.90;100.00
39243;BME280;29823;47.404;8.566;2023-04-08T07:07:23;96781.84;;;8.11;100.00
39243;BME280;29823;47.404;8.566;2023-04-08T07:09:51;96780.59;;;8.20;100.00
39243;BME280;29823;47.404;8.566;2023-04-08T07:12:19;96776.50;;;8.24;100.00
39243;BME280;29823;47.404;8.566;2023-04-08T07:14:47;96787.09;;;8.37;100.00
39243;BME280;29823;47.404;8.566;2023-04-08T07:17:15;96780.31;;;8.41;100.00
39243;BME280;29823;47.404;8.566;2023-04-08T07:19:43;96776.59;;;8.55;100.00
39243;BME280;29823;47.404;8.566;2023-04-08T07:22:11;96778.31;;;8.74;100.00
39243;BME280;29823;47.404;8.566;2023-04-08T07:24:40;96777.47;;;8.80;100.00
39243;BME280;29823;47.404;8.566;2023-04-08T07:27:08;96782.41;;;8.77;100.00
39243;BME280;29823;47.404;8.566;2023-04-08T07:29:37;96783.63;;;8.81;100.00
39243;BME280;29823;47.404;8.566;2023-04-08T07:32:04;96783.53;;;8.94;100.00
39243;BME280;29823;47.404;8.566;2023-04-08T07:34:33;96783.34;;;8.51;100.00
39243;BME280;29823;47.404;8.566;2023-04-08T07:37:01;96794.03;;;8.51;100.00
39243;BME280;29823;47.404;8.566;2023-04-08T07:39:29;96797.84;;;8.68;100.00
39243;BME280;29823;47.404;8.566;2023-04-08T07:41:58;96797.41;;;8.71;100.00
39243;BME280;29823;47.404;8.566;2023-04-08T07:44:26;96790.38;;;8.83;100.00
39243;BME280;29823;47.404;8.566;2023-04-08T07:46:54;96795.25;;;8.86;100.00
39243;BME280;29823;47.404;8.566;2023-04-08T07:49:21;96795.16;;;8.68;100.00
39243;BME280;29823;47.404;8.566;2023-04-08T07:51:49;96798.28;;;8.96;100.00
39243;BME280;29823;47.404;8.566;2023-04-08T07:54:17;96806.22;;;9.09;100.00
39243;BME280;29823;47.404;8.566;2023-04-08T07:56:45;96807.28;;;9.08;100.00
39243;BME280;29823;47.404;8.566;2023-04-08T07:59:14;96807.13;;;9.28;100.00
39243;BME280;29823;47.404;8.566;2023-04-08T08:01:42;96814.22;;;9.09;100.00
39243;BME280;29823;47.404;8.566;2023-04-08T08:04:10;96811.75;;;9.14;100.00
39243;BME280;29823;47.404;8.566;2023-04-08T08:06:39;96807.88;;;9.04;100.00
39243;BME280;29823;47.404;8.566;2023-04-08T08:09:07;96813.84;;;9.61;100.00
39243;BME280;29823;47.404;8.566;2023-04-08T08:11:34;96817.66;;;9.47;100.00
39243;BME280;29823;47.404;8.566;2023-04-08T08:14:02;96811.94;;;9.68;100.00
39243;BME280;29823;47.404;8.566;2023-04-08T08:16:32;96813.91;;;10.04;100.00
39243;BME280;29823;47.404;8.566;2023-04-08T08:19:00;96815.41;;;10.18;100.00
39243;BME280;29823;47.404;8.566;2023-04-08T08:21:31;96810.88;;;10.18;100.00
39243;BME280;29823;47.404;8.566;2023-04-08T08:23:59;96809.78;;;10.62;100.00
39243;BME280;29823;47.404;8.566;2023-04-08T08:26:27;96823.06;;;10.68;100.00
39243;BME280;29823;47.404;8.566;2023-04-08T08:28:55;96817.38;;;10.94;100.00
39243;BME280;29823;47.404;8.566;2023-04-08T08:31:23;96817.81;;;11.09;100.00
39243;BME280;29823;47.404;8.566;2023-04-08T08:33:52;96819.06;;;11.36;100.00
39243;BME280;29823;47.404;8.566;2023-04-08T08:36:20;96827.81;;;11.96;100.00
39243;BME280;29823;47.404;8.566;2023-04-08T08:38:47;96817.53;;;11.81;100.00
39243;BME280;29823;47.404;8.566;2023-04-08T08:41:17;96827.34;;;12.33;100.00
39243;BME280;29823;47.404;8.566;2023-04-08T08:43:45;96824.25;;;13.15;94.31
39243;BME280;29823;47.404;8.566;2023-04-08T08:46:15;96826.22;;;12.80;99.14
39243;BME280;29823;47.404;8.566;2023-04-08T08:48:44;96829.91;;;12.91;92.00
39243;BME280;29823;47.404;8.566;2023-04-08T08:51:13;96825.97;;;12.82;90.80
39243;BME280;29823;47.404;8.566;2023-04-08T08:53:41;96828.19;;;11.99;100.00
39243;BME280;29823;47.404;8.566;2023-04-08T08:56:11;96819.44;;;12.04;100.00
39243;BME280;29823;47.404;8.566;2023-04-08T08:58:44;96831.94;;;12.72;98.26
39243;BME280;29823;47.404;8.566;2023-04-08T09:01:29;96837.25;;;12.44;91.74
39243;BME280;29823;47.404;8.566;2023-04-08T09:04:12;96829.81;;;12.35;100.00
39243;BME280;29823;47.404;8.566;2023-04-08T09:06:44;96830.25;;;12.20;100.00
39243;BME280;29823;47.404;8.566;2023-04-08T09:09:12;96837.72;;;12.07;97.68
39243;BME280;29823;47.404;8.566;2023-04-08T09:11:42;96828.88;;;12.06;97.45
39243;BME280;29823;47.404;8.566;2023-04-08T09:14:20;96825.94;;;12.93;93.56
39243;BME280;29823;47.404;8.566;2023-04-08T09:16:48;96837.00;;;12.00;92.62
39243;BME280;29823;47.404;8.566;2023-04-08T09:19:16;96833.34;;;11.30;100.00
39243;BME280;29823;47.404;8.566;2023-04-08T09:22:03;96831.66;;;12.00;100.00
39243;BME280;29823;47.404;8.566;2023-04-08T09:24:31;96824.00;;;13.45;87.42
39243;BME280;29823;47.404;8.566;2023-04-08T09:26:59;96832.38;;;13.93;81.61
39243;BME280;29823;47.404;8.566;2023-04-08T09:29:27;96827.31;;;13.63;85.37
39243;BME280;29823;47.404;8.566;2023-04-08T09:32:00;96820.78;;;13.92;77.34
39243;BME280;29823;47.404;8.566;2023-04-08T09:34:29;96824.00;;;13.89;78.44
39243;BME280;29823;47.404;8.566;2023-04-08T09:37:01;96818.59;;;12.49;82.83
39243;BME280;29823;47.404;8.566;2023-04-08T09:39:29;96818.13;;;12.92;79.18
39243;BME280;29823;47.404;8.566;2023-04-08T09:41:59;96828.22;;;13.85;74.13
39243;BME280;29823;47.404;8.566;2023-04-08T09:44:28;96818.81;;;15.18;66.89
39243;BME280;29823;47.404;8.566;2023-04-08T09:47:03;96817.84;;;14.81;68.11
39243;BME280;29823;47.404;8.566;2023-04-08T09:49:37;96816.94;;;16.76;59.67
39243;BME280;29823;47.404;8.566;2023-04-08T09:52:12;96817.78;;;17.53;56.35
39243;BME280;29823;47.404;8.566;2023-04-08T09:54:50;96823.06;;;17.18;56.37
39243;BME280;29823;47.404;8.566;2023-04-08T09:57:21;96812.44;;;17.78;54.11
39243;BME280;29823;47.404;8.566;2023-04-08T10:00:03;96830.16;;;17.34;55.32
39243;BME280;29823;47.404;8.566;2023-04-08T10:02:37;96821.63;;;18.07;52.65
39243;BME280;29823;47.404;8.566;2023-04-08T10:05:07;96820.03;;;18.36;50.80
39243;BME280;29823;47.404;8.566;2023-04-08T10:07:40;96821.78;;;17.31;53.35
39243;BME280;29823;47.404;8.566;2023-04-08T10:10:08;96823.47;;;17.42;53.69
39243;BME280;29823;47.404;8.566;2023-04-08T10:12:37;96821.63;;;18.67;49.86
39243;BME280;29823;47.404;8.566;2023-04-08T10:15:22;96820.69;;;16.70;54.67
39243;BME280;29823;47.404;8.566;2023-04-08T10:17:51;96819.78;;;17.06;51.92
39243;BME280;29823;47.404;8.566;2023-04-08T10:20:41;96818.69;;;16.19;55.68
39243;BME280;29823;47.404;8.566;2023-04-08T10:23:12;96817.91;;;16.19;55.77
39243;BME280;29823;47.404;8.566;2023-04-08T10:25:41;96814.28;;;16.86;51.52
39243;BME280;29823;47.404;8.566;2023-04-08T10:28:23;96816.53;;;17.09;52.17
39243;BME280;29823;47.404;8.566;2023-04-08T10:30:52;96804.84;;;17.80;50.52
39243;BME280;29823;47.404;8.566;2023-04-08T10:33:22;96802.69;;;18.52;50.83
39243;BME280;29823;47.404;8.566;2023-04-08T10:35:58;96803.28;;;19.13;48.54
39243;BME280;29823;47.404;8.566;2023-04-08T10:38:30;96806.75;;;18.60;48.39
39243;BME280;29823;47.404;8.566;2023-04-08T10:40:58;96793.59;;;17.12;49.99
39243;BME280;29823;47.404;8.566;2023-04-08T10:43:31;96803.78;;;17.96;49.25
39243;BME280;29823;47.404;8.566;2023-04-08T10:46:00;96797.59;;;16.99;52.22
39243;BME280;29823;47.404;8.566;2023-04-08T10:48:27;96804.50;;;16.70;52.98
39243;BME280;29823;47.404;8.566;2023-04-08T10:50:57;96796.25;;;16.09;52.73
39243;BME280;29823;47.404;8.566;2023-04-08T10:53:25;96785.59;;;14.86;55.45
39243;BME280;29823;47.404;8.566;2023-04-08T10:56:04;96790.53;;;14.94;57.70
39243;BME280;29823;47.404;8.566;2023-04-08T10:58:33;96797.22;;;14.70;59.19
39243;BME280;29823;47.404;8.566;2023-04-08T11:01:05;96796.84;;;14.07;60.81
39243;BME280;29823;47.404;8.566;2023-04-08T11:03:34;96792.44;;;14.34;63.66
39243;BME280;29823;47.404;8.566;2023-04-08T11:06:03;96795.63;;;13.98;62.06
39243;BME280;29823;47.404;8.566;2023-04-08T11:08:32;96792.56;;;14.44;60.09
39243;BME280;29823;47.404;8.566;2023-04-08T11:11:00;96792.63;;;14.11;60.16
39243;BME280;29823;47.404;8.566;2023-04-08T11:13:29;96793.00;;;13.09;63.59
39243;BME280;29823;47.404;8.566;2023-04-08T11:15:58;96791.47;;;14.07;62.25
39243;BME280;29823;47.404;8.566;2023-04-08T11:18:29;96787.31;;;14.00;62.55
39243;BME280;29823;47.404;8.566;2023-04-08T11:20:57;96784.81;;;14.26;59.51
39243;BME280;29823;47.404;8.566;2023-04-08T11:23:26;96793.69;;;13.94;62.03
39243;BME280;29823;47.404;8.566;2023-04-08T11:25:54;96794.34;;;13.23;62.85
39243;BME280;29823;47.404;8.566;2023-04-08T11:28:22;96790.47;;;13.03;66.43
39243;BME280;29823;47.404;8.566;2023-04-08T11:30:53;96789.25;;;13.10;64.08
39243;BME280;29823;47.404;8.566;2023-04-08T11:33:23;96793.34;;;12.73;68.65
39243;BME280;29823;47.404;8.566;2023-04-08T11:35:51;96790.81;;;12.55;70.00
39243;BME280;29823;47.404;8.566;2023-04-08T11:38:21;96797.13;;;12.49;72.63
39243;BME280;29823;47.404;8.566;2023-04-08T11:40:52;96787.78;;;13.03;70.57
39243;BME280;29823;47.404;8.566;2023-04-08T11:43:21;96790.78;;;13.06;68.91
39243;BME280;29823;47.404;8.566;2023-04-08T11:45:50;96794.16;;;12.74;71.24
39243;BME280;29823;47.404;8.566;2023-04-08T11:48:19;96787.38;;;12.83;71.25
39243;BME280;29823;47.404;8.566;2023-04-08T11:50:47;96784.03;;;12.64;71.09
39243;BME280;29823;47.404;8.566;2023-04-08T11:53:17;96793.81;;;12.70;71.02
39243;BME280;29823;47.404;8.566;2023-04-08T11:55:46;96786.63;;;12.59;66.80
39243;BME280;29823;47.404;8.566;2023-04-08T11:58:15;96773.56;;;12.91;66.73
39243;BME280;29823;47.404;8.566;2023-04-08T12:00:43;96785.41;;;13.06;62.78
39243;BME280;29823;47.404;8.566;2023-04-08T12:03:11;96781.34;;;13.32;62.94
39243;BME280;29823;47.404;8.566;2023-04-08T12:05:41;96784.66;;;13.22;63.10
39243;BME280;29823;47.404;8.566;2023-04-08T12:08:09;96779.75;;;13.47;62.15
39243;BME280;29823;47.404;8.566;2023-04-08T12:10:36;96781.69;;;13.85;60.28
39243;BME280;29823;47.404;8.566;2023-04-08T12:13:04;96790.91;;;14.05;60.63
39243;BME280;29823;47.404;8.566;2023-04-08T12:15:32;96777.63;;;13.99;59.99
39243;BME280;29823;47.404;8.566;2023-04-08T12:18:00;96787.50;;;13.16;58.52
39243;BME280;29823;47.404;8.566;2023-04-08T12:20:28;96780.25;;;13.77;58.89
39243;BME280;29823;47.404;8.566;2023-04-08T12:22:57;96785.28;;;14.23;59.35
39243;BME280;29823;47.404;8.566;2023-04-08T12:25:25;96787.56;;;13.65;58.99
39243;BME280;29823;47.404;8.566;2023-04-08T12:27:54;96776.09;;;14.03;56.91
39243;BME280;29823;47.404;8.566;2023-04-08T12:30:22;96785.75;;;13.87;59.09
39243;BME280;29823;47.404;8.566;2023-04-08T12:32:50;96787.91;;;14.02;59.61
39243;BME280;29823;47.404;8.566;2023-04-08T12:35:20;96784.16;;;13.86;62.58
39243;BME280;29823;47.404;8.566;2023-04-08T12:37:48;96792.94;;;13.98;63.52
39243;BME280;29823;47.404;8.566;2023-04-08T12:40:18;96783.63;;;13.23;69.20
39243;BME280;29823;47.404;8.566;2023-04-08T12:42:45;96787.31;;;13.06;69.50
39243;BME280;29823;47.404;8.566;2023-04-08T12:45:14;96789.06;;;13.28;70.47
39243;BME280;29823;47.404;8.566;2023-04-08T12:47:41;96788.13;;;13.34;71.48
39243;BME280;29823;47.404;8.566;2023-04-08T12:50:09;96796.19;;;12.95;73.83
39243;BME280;29823;47.404;8.566;2023-04-08T12:52:37;96789.31;;;12.59;74.50
39243;BME280;29823;47.404;8.566;2023-04-08T12:55:06;96789.34;;;12.87;71.50
39243;BME280;29823;47.404;8.566;2023-04-08T12:57:35;96805.22;;;12.77;71.65
39243;BME280;29823;47.404;8.566;2023-04-08T13:00:04;96805.34;;;12.71;74.73
39243;BME280;29823;47.404;8.566;2023-04-08T13:02:32;96802.00;;;12.52;76.35
39243;BME280;29823;47.404;8.566;2023-04-08T13:05:00;96801.66;;;12.60;76.65
39243;BME280;29823;47.404;8.566;2023-04-08T13:07:28;96792.03;;;12.76;75.70
39243;BME280;29823;47.404;8.566;2023-04-08T13:09:56;96787.94;;;12.96;73.57